Radisson, Canada
Current Conditions -  °F | °C
As of 6:00 PM on Wednesday 22 Oct 2014 (Local Time) from CYGL Reporting Station
Few Clouds Few Clouds  
Wind Chill: 37°   Ceiling: Unl
Heat Index: 43°   Visibility: 15mi
Dew Point: 25°   Wind: 10mph
Humidity: 49%   Direction: 180°S
Pressure: 30.27"   Gusts: NA
Location:  53.78°N, 77.62°W
Report Text: CYGL 222200Z 18009KT 15SM FEW100 FEW240 06/M04 A3027 RMK AC1CI1 AC TR SLP261
Loading
Personal Weather Stations






























Interactive Weather Map
Tropical Storm Tracking
New forecast layout! Learn more

10-Day Weather Forecast

Advertisements
Track Severe Weather on mobile